sensor_id;sensor_type;location;lat;lon;timestamp;P1;durP1;ratioP1;P2;durP2;ratioP2
20749;SDS011;10535;50.664;4.564;2022-10-16T00:01:58;2.40;;;0.93;;
20749;SDS011;10535;50.664;4.564;2022-10-16T00:04:23;3.40;;;0.73;;
20749;SDS011;10535;50.664;4.564;2022-10-16T00:06:49;1.07;;;0.80;;
20749;SDS011;10535;50.664;4.564;2022-10-16T00:09:15;0.80;;;0.80;;
20749;SDS011;10535;50.664;4.564;2022-10-16T00:11:41;2.10;;;0.90;;
20749;SDS011;10535;50.664;4.564;2022-10-16T00:14:08;0.90;;;0.83;;
20749;SDS011;10535;50.664;4.564;2022-10-16T00:16:37;1.53;;;1.00;;
20749;SDS011;10535;50.664;4.564;2022-10-16T00:19:03;1.40;;;0.70;;
20749;SDS011;10535;50.664;4.564;2022-10-16T00:21:30;1.20;;;0.90;;
20749;SDS011;10535;50.664;4.564;2022-10-16T00:24:00;2.10;;;0.90;;
20749;SDS011;10535;50.664;4.564;2022-10-16T00:26:31;1.27;;;1.00;;
20749;SDS011;10535;50.664;4.564;2022-10-16T00:28:57;2.50;;;0.80;;
20749;SDS011;10535;50.664;4.564;2022-10-16T00:31:23;0.63;;;0.63;;
20749;SDS011;10535;50.664;4.564;2022-10-16T00:33:49;2.10;;;0.83;;
20749;SDS011;10535;50.664;4.564;2022-10-16T00:36:16;1.00;;;0.70;;
20749;SDS011;10535;50.664;4.564;2022-10-16T00:38:44;0.60;;;0.60;;
20749;SDS011;10535;50.664;4.564;2022-10-16T00:41:11;2.73;;;0.80;;
20749;SDS011;10535;50.664;4.564;2022-10-16T00:43:52;0.80;;;0.80;;
20749;SDS011;10535;50.664;4.564;2022-10-16T00:46:35;1.07;;;0.97;;
20749;SDS011;10535;50.664;4.564;2022-10-16T00:51:38;3.70;;;0.93;;
20749;SDS011;10535;50.664;4.564;2022-10-16T00:54:16;0.60;;;0.60;;
20749;SDS011;10535;50.664;4.564;2022-10-16T00:56:45;1.47;;;1.30;;
20749;SDS011;10535;50.664;4.564;2022-10-16T00:59:19;0.93;;;0.90;;
20749;SDS011;10535;50.664;4.564;2022-10-16T01:01:53;0.57;;;0.57;;
20749;SDS011;10535;50.664;4.564;2022-10-16T01:04:20;1.10;;;0.90;;
20749;SDS011;10535;50.664;4.564;2022-10-16T01:10:16;3.43;;;1.00;;
20749;SDS011;10535;50.664;4.564;2022-10-16T01:13:06;1.67;;;1.17;;
20749;SDS011;10535;50.664;4.564;2022-10-16T01:15:47;2.50;;;1.23;;
20749;SDS011;10535;50.664;4.564;2022-10-16T01:21:10;1.10;;;1.00;;
20749;SDS011;10535;50.664;4.564;2022-10-16T01:29:20;1.00;;;0.87;;
20749;SDS011;10535;50.664;4.564;2022-10-16T01:31:50;4.83;;;0.83;;
20749;SDS011;10535;50.664;4.564;2022-10-16T01:34:25;3.17;;;1.20;;
20749;SDS011;10535;50.664;4.564;2022-10-16T01:37:03;1.23;;;1.13;;
20749;SDS011;10535;50.664;4.564;2022-10-16T01:39:35;1.37;;;0.80;;
20749;SDS011;10535;50.664;4.564;2022-10-16T01:42:11;0.97;;;0.97;;
20749;SDS011;10535;50.664;4.564;2022-10-16T01:44:42;1.37;;;1.10;;
20749;SDS011;10535;50.664;4.564;2022-10-16T01:47:11;2.17;;;0.90;;
20749;SDS011;10535;50.664;4.564;2022-10-16T01:49:39;2.10;;;1.23;;
20749;SDS011;10535;50.664;4.564;2022-10-16T01:52:09;1.10;;;1.00;;
20749;SDS011;10535;50.664;4.564;2022-10-16T01:54:40;1.43;;;1.00;;
20749;SDS011;10535;50.664;4.564;2022-10-16T01:57:08;1.20;;;1.10;;
20749;SDS011;10535;50.664;4.564;2022-10-16T01:59:40;1.07;;;0.97;;
20749;SDS011;10535;50.664;4.564;2022-10-16T02:02:11;1.67;;;1.23;;
20749;SDS011;10535;50.664;4.564;2022-10-16T02:07:14;1.33;;;0.90;;
20749;SDS011;10535;50.664;4.564;2022-10-16T02:09:40;3.27;;;1.27;;
20749;SDS011;10535;50.664;4.564;2022-10-16T02:12:08;1.30;;;1.00;;
20749;SDS011;10535;50.664;4.564;2022-10-16T02:14:38;1.13;;;0.90;;
20749;SDS011;10535;50.664;4.564;2022-10-16T02:17:10;2.57;;;1.10;;
20749;SDS011;10535;50.664;4.564;2022-10-16T02:19:37;2.07;;;1.00;;
20749;SDS011;10535;50.664;4.564;2022-10-16T02:22:04;8.37;;;1.53;;
20749;SDS011;10535;50.664;4.564;2022-10-16T02:24:43;2.17;;;1.03;;
20749;SDS011;10535;50.664;4.564;2022-10-16T02:29:54;1.23;;;0.70;;
20749;SDS011;10535;50.664;4.564;2022-10-16T02:32:33;1.00;;;0.90;;
20749;SDS011;10535;50.664;4.564;2022-10-16T02:35:02;0.90;;;0.90;;
20749;SDS011;10535;50.664;4.564;2022-10-16T02:37:29;3.00;;;1.10;;
20749;SDS011;10535;50.664;4.564;2022-10-16T02:39:56;1.47;;;1.10;;
20749;SDS011;10535;50.664;4.564;2022-10-16T02:42:27;4.83;;;1.67;;
20749;SDS011;10535;50.664;4.564;2022-10-16T02:44:55;1.93;;;1.00;;
20749;SDS011;10535;50.664;4.564;2022-10-16T02:47:20;1.73;;;1.27;;
20749;SDS011;10535;50.664;4.564;2022-10-16T02:49:46;1.77;;;1.30;;
20749;SDS011;10535;50.664;4.564;2022-10-16T02:52:12;3.00;;;1.30;;
20749;SDS011;10535;50.664;4.564;2022-10-16T02:54:37;1.10;;;1.00;;
20749;SDS011;10535;50.664;4.564;2022-10-16T02:57:03;4.50;;;1.20;;
20749;SDS011;10535;50.664;4.564;2022-10-16T02:59:28;1.57;;;1.13;;
20749;SDS011;10535;50.664;4.564;2022-10-16T03:01:54;5.13;;;1.10;;
20749;SDS011;10535;50.664;4.564;2022-10-16T03:04:19;2.83;;;1.00;;
20749;SDS011;10535;50.664;4.564;2022-10-16T03:06:45;1.77;;;1.23;;
20749;SDS011;10535;50.664;4.564;2022-10-16T03:09:10;5.77;;;1.40;;
20749;SDS011;10535;50.664;4.564;2022-10-16T03:11:36;2.80;;;1.33;;
20749;SDS011;10535;50.664;4.564;2022-10-16T03:14:02;2.07;;;0.97;;
20749;SDS011;10535;50.664;4.564;2022-10-16T03:16:27;1.43;;;1.10;;
20749;SDS011;10535;50.664;4.564;2022-10-16T03:18:53;1.33;;;1.17;;
20749;SDS011;10535;50.664;4.564;2022-10-16T03:21:18;2.30;;;1.10;;
20749;SDS011;10535;50.664;4.564;2022-10-16T03:23:44;4.00;;;1.40;;
20749;SDS011;10535;50.664;4.564;2022-10-16T03:26:10;2.97;;;1.20;;
20749;SDS011;10535;50.664;4.564;2022-10-16T03:28:35;3.53;;;1.63;;
20749;SDS011;10535;50.664;4.564;2022-10-16T03:31:01;1.93;;;1.33;;
20749;SDS011;10535;50.664;4.564;2022-10-16T03:33:26;2.30;;;1.43;;
20749;SDS011;10535;50.664;4.564;2022-10-16T03:35:52;2.23;;;1.37;;
20749;SDS011;10535;50.664;4.564;2022-10-16T03:38:19;1.27;;;1.13;;
20749;SDS011;10535;50.664;4.564;2022-10-16T03:40:45;1.47;;;1.13;;
20749;SDS011;10535;50.664;4.564;2022-10-16T03:43:10;1.97;;;1.80;;
20749;SDS011;10535;50.664;4.564;2022-10-16T03:45:36;2.73;;;1.77;;
20749;SDS011;10535;50.664;4.564;2022-10-16T03:48:02;5.40;;;1.70;;
20749;SDS011;10535;50.664;4.564;2022-10-16T03:50:28;2.67;;;1.47;;
20749;SDS011;10535;50.664;4.564;2022-10-16T03:52:54;2.20;;;1.60;;
20749;SDS011;10535;50.664;4.564;2022-10-16T03:55:19;2.47;;;1.80;;
20749;SDS011;10535;50.664;4.564;2022-10-16T03:57:45;6.13;;;2.13;;
20749;SDS011;10535;50.664;4.564;2022-10-16T04:00:11;3.40;;;1.57;;
20749;SDS011;10535;50.664;4.564;2022-10-16T04:02:37;3.33;;;2.20;;
20749;SDS011;10535;50.664;4.564;2022-10-16T04:05:03;4.27;;;2.00;;
20749;SDS011;10535;50.664;4.564;2022-10-16T04:07:29;2.67;;;1.80;;
20749;SDS011;10535;50.664;4.564;2022-10-16T04:09:55;2.23;;;1.50;;
20749;SDS011;10535;50.664;4.564;2022-10-16T04:12:22;2.50;;;1.80;;
20749;SDS011;10535;50.664;4.564;2022-10-16T04:14:47;3.13;;;1.70;;
20749;SDS011;10535;50.664;4.564;2022-10-16T04:17:13;3.83;;;1.63;;
20749;SDS011;10535;50.664;4.564;2022-10-16T04:19:38;2.93;;;1.63;;
20749;SDS011;10535;50.664;4.564;2022-10-16T04:22:04;5.33;;;2.00;;
20749;SDS011;10535;50.664;4.564;2022-10-16T04:24:30;2.77;;;1.80;;
20749;SDS011;10535;50.664;4.564;2022-10-16T04:26:55;6.30;;;1.90;;
20749;SDS011;10535;50.664;4.564;2022-10-16T04:29:21;5.20;;;2.00;;
20749;SDS011;10535;50.664;4.564;2022-10-16T04:31:47;5.27;;;2.00;;
20749;SDS011;10535;50.664;4.564;2022-10-16T04:34:12;3.60;;;2.00;;
20749;SDS011;10535;50.664;4.564;2022-10-16T04:36:38;4.63;;;2.00;;
20749;SDS011;10535;50.664;4.564;2022-10-16T04:39:03;3.37;;;2.07;;
20749;SDS011;10535;50.664;4.564;2022-10-16T04:41:29;2.60;;;1.97;;
20749;SDS011;10535;50.664;4.564;2022-10-16T04:43:55;3.83;;;2.23;;
20749;SDS011;10535;50.664;4.564;2022-10-16T04:46:20;3.60;;;1.87;;
20749;SDS011;10535;50.664;4.564;2022-10-16T04:48:46;3.63;;;2.50;;
20749;SDS011;10535;50.664;4.564;2022-10-16T04:51:11;2.67;;;1.83;;
20749;SDS011;10535;50.664;4.564;2022-10-16T04:53:37;3.73;;;2.17;;
20749;SDS011;10535;50.664;4.564;2022-10-16T04:56:03;3.17;;;1.90;;
20749;SDS011;10535;50.664;4.564;2022-10-16T04:58:28;6.37;;;2.23;;
20749;SDS011;10535;50.664;4.564;2022-10-16T05:00:54;3.60;;;1.70;;
20749;SDS011;10535;50.664;4.564;2022-10-16T05:03:20;10.23;;;2.77;;
20749;SDS011;10535;50.664;4.564;2022-10-16T05:05:45;2.67;;;1.83;;
20749;SDS011;10535;50.664;4.564;2022-10-16T05:08:12;4.03;;;1.83;;
20749;SDS011;10535;50.664;4.564;2022-10-16T05:10:39;5.93;;;1.73;;
20749;SDS011;10535;50.664;4.564;2022-10-16T05:13:06;3.50;;;1.83;;
20749;SDS011;10535;50.664;4.564;2022-10-16T05:15:32;3.87;;;1.80;;
20749;SDS011;10535;50.664;4.564;2022-10-16T05:17:58;2.93;;;2.17;;
20749;SDS011;10535;50.664;4.564;2022-10-16T05:20:24;3.03;;;2.00;;
20749;SDS011;10535;50.664;4.564;2022-10-16T05:22:50;4.17;;;1.50;;
20749;SDS011;10535;50.664;4.564;2022-10-16T05:25:15;6.53;;;2.20;;
20749;SDS011;10535;50.664;4.564;2022-10-16T05:27:41;6.00;;;2.40;;
20749;SDS011;10535;50.664;4.564;2022-10-16T05:30:07;2.87;;;2.00;;
20749;SDS011;10535;50.664;4.564;2022-10-16T05:32:33;3.63;;;2.30;;
20749;SDS011;10535;50.664;4.564;2022-10-16T05:34:59;3.83;;;1.90;;
20749;SDS011;10535;50.664;4.564;2022-10-16T05:37:25;6.60;;;2.23;;
20749;SDS011;10535;50.664;4.564;2022-10-16T05:39:52;2.83;;;1.73;;
20749;SDS011;10535;50.664;4.564;2022-10-16T05:42:17;2.50;;;2.27;;
20749;SDS011;10535;50.664;4.564;2022-10-16T05:44:43;4.87;;;2.23;;
20749;SDS011;10535;50.664;4.564;2022-10-16T05:47:09;2.43;;;1.80;;
20749;SDS011;10535;50.664;4.564;2022-10-16T05:49:37;3.23;;;1.80;;
20749;SDS011;10535;50.664;4.564;2022-10-16T05:52:02;2.77;;;2.17;;
20749;SDS011;10535;50.664;4.564;2022-10-16T05:54:28;4.20;;;2.00;;
20749;SDS011;10535;50.664;4.564;2022-10-16T05:56:54;4.83;;;2.37;;
20749;SDS011;10535;50.664;4.564;2022-10-16T05:59:19;2.30;;;1.83;;
20749;SDS011;10535;50.664;4.564;2022-10-16T06:01:45;5.97;;;2.70;;
20749;SDS011;10535;50.664;4.564;2022-10-16T06:04:11;3.77;;;2.53;;
20749;SDS011;10535;50.664;4.564;2022-10-16T06:06:36;3.20;;;2.37;;
20749;SDS011;10535;50.664;4.564;2022-10-16T06:09:02;6.17;;;3.17;;
20749;SDS011;10535;50.664;4.564;2022-10-16T06:11:29;5.10;;;2.10;;
20749;SDS011;10535;50.664;4.564;2022-10-16T06:13:57;3.47;;;2.43;;
20749;SDS011;10535;50.664;4.564;2022-10-16T06:16:25;5.13;;;2.40;;
20749;SDS011;10535;50.664;4.564;2022-10-16T06:18:51;3.80;;;2.47;;
20749;SDS011;10535;50.664;4.564;2022-10-16T06:21:19;3.10;;;2.33;;
20749;SDS011;10535;50.664;4.564;2022-10-16T06:23:47;4.27;;;2.83;;
20749;SDS011;10535;50.664;4.564;2022-10-16T06:26:14;4.30;;;2.13;;
20749;SDS011;10535;50.664;4.564;2022-10-16T06:28:41;2.57;;;1.90;;
20749;SDS011;10535;50.664;4.564;2022-10-16T06:31:08;4.53;;;2.90;;
20749;SDS011;10535;50.664;4.564;2022-10-16T06:33:35;3.73;;;2.57;;
20749;SDS011;10535;50.664;4.564;2022-10-16T06:36:05;3.53;;;2.77;;
20749;SDS011;10535;50.664;4.564;2022-10-16T06:38:33;6.93;;;2.60;;
20749;SDS011;10535;50.664;4.564;2022-10-16T06:40:59;3.33;;;2.67;;
20749;SDS011;10535;50.664;4.564;2022-10-16T06:43:25;5.43;;;2.20;;
20749;SDS011;10535;50.664;4.564;2022-10-16T06:45:55;3.33;;;2.27;;
20749;SDS011;10535;50.664;4.564;2022-10-16T06:48:22;7.13;;;3.07;;
20749;SDS011;10535;50.664;4.564;2022-10-16T06:53:36;4.53;;;2.90;;
20749;SDS011;10535;50.664;4.564;2022-10-16T06:56:08;6.67;;;2.77;;
20749;SDS011;10535;50.664;4.564;2022-10-16T06:58:38;3.93;;;2.40;;
20749;SDS011;10535;50.664;4.564;2022-10-16T07:01:04;3.97;;;2.80;;
20749;SDS011;10535;50.664;4.564;2022-10-16T07:03:30;3.13;;;2.30;;
20749;SDS011;10535;50.664;4.564;2022-10-16T07:05:56;4.27;;;3.20;;
20749;SDS011;10535;50.664;4.564;2022-10-16T07:08:26;5.80;;;3.30;;
20749;SDS011;10535;50.664;4.564;2022-10-16T07:10:57;4.33;;;3.10;;
20749;SDS011;10535;50.664;4.564;2022-10-16T07:13:24;3.83;;;2.67;;
20749;SDS011;10535;50.664;4.564;2022-10-16T07:15:50;4.50;;;3.03;;
20749;SDS011;10535;50.664;4.564;2022-10-16T07:18:16;6.17;;;3.07;;
20749;SDS011;10535;50.664;4.564;2022-10-16T07:20:42;12.60;;;3.40;;
20749;SDS011;10535;50.664;4.564;2022-10-16T07:23:08;6.60;;;3.47;;
20749;SDS011;10535;50.664;4.564;2022-10-16T07:25:33;4.63;;;3.00;;
20749;SDS011;10535;50.664;4.564;2022-10-16T07:27:59;3.50;;;2.57;;
20749;SDS011;10535;50.664;4.564;2022-10-16T07:30:25;8.23;;;3.20;;
20749;SDS011;10535;50.664;4.564;2022-10-16T07:32:50;7.10;;;3.10;;
20749;SDS011;10535;50.664;4.564;2022-10-16T07:35:19;3.83;;;2.30;;
20749;SDS011;10535;50.664;4.564;2022-10-16T07:37:54;4.17;;;2.37;;
20749;SDS011;10535;50.664;4.564;2022-10-16T07:40:22;4.23;;;2.90;;
20749;SDS011;10535;50.664;4.564;2022-10-16T07:42:48;2.97;;;2.13;;
20749;SDS011;10535;50.664;4.564;2022-10-16T07:45:13;3.17;;;2.30;;
20749;SDS011;10535;50.664;4.564;2022-10-16T07:47:39;2.73;;;2.23;;
20749;SDS011;10535;50.664;4.564;2022-10-16T07:50:06;2.57;;;2.17;;
20749;SDS011;10535;50.664;4.564;2022-10-16T07:52:33;3.93;;;2.13;;
20749;SDS011;10535;50.664;4.564;2022-10-16T07:54:58;2.80;;;2.07;;
20749;SDS011;10535;50.664;4.564;2022-10-16T07:57:24;3.57;;;2.67;;
20749;SDS011;10535;50.664;4.564;2022-10-16T07:59:54;2.47;;;2.13;;
20749;SDS011;10535;50.664;4.564;2022-10-16T08:02:19;2.10;;;1.90;;
20749;SDS011;10535;50.664;4.564;2022-10-16T08:04:48;3.10;;;2.00;;
20749;SDS011;10535;50.664;4.564;2022-10-16T08:07:15;4.43;;;2.00;;
20749;SDS011;10535;50.664;4.564;2022-10-16T08:09:41;3.87;;;2.27;;
20749;SDS011;10535;50.664;4.564;2022-10-16T08:12:14;2.97;;;1.77;;
20749;SDS011;10535;50.664;4.564;2022-10-16T08:14:40;2.20;;;2.00;;
20749;SDS011;10535;50.664;4.564;2022-10-16T08:17:17;2.40;;;1.70;;
20749;SDS011;10535;50.664;4.564;2022-10-16T08:19:46;5.50;;;1.63;;
20749;SDS011;10535;50.664;4.564;2022-10-16T08:22:17;4.60;;;2.10;;
20749;SDS011;10535;50.664;4.564;2022-10-16T08:24:46;6.23;;;2.00;;
20749;SDS011;10535;50.664;4.564;2022-10-16T08:27:22;3.50;;;1.90;;
20749;SDS011;10535;50.664;4.564;2022-10-16T08:29:56;8.83;;;1.93;;
20749;SDS011;10535;50.664;4.564;2022-10-16T08:32:22;1.77;;;1.67;;
20749;SDS011;10535;50.664;4.564;2022-10-16T08:34:53;4.07;;;1.63;;
20749;SDS011;10535;50.664;4.564;2022-10-16T08:37:18;4.23;;;1.60;;
20749;SDS011;10535;50.664;4.564;2022-10-16T08:39:44;2.73;;;1.73;;
20749;SDS011;10535;50.664;4.564;2022-10-16T08:44:54;5.17;;;1.27;;
20749;SDS011;10535;50.664;4.564;2022-10-16T08:47:48;5.23;;;1.20;;
20749;SDS011;10535;50.664;4.564;2022-10-16T08:50:32;4.33;;;1.30;;
20749;SDS011;10535;50.664;4.564;2022-10-16T08:53:04;3.00;;;1.13;;
20749;SDS011;10535;50.664;4.564;2022-10-16T08:55:34;1.57;;;1.17;;
20749;SDS011;10535;50.664;4.564;2022-10-16T08:58:15;1.87;;;0.90;;
20749;SDS011;10535;50.664;4.564;2022-10-16T09:01:04;0.90;;;0.90;;
20749;SDS011;10535;50.664;4.564;2022-10-16T09:06:48;1.97;;;1.20;;
20749;SDS011;10535;50.664;4.564;2022-10-16T09:12:40;3.53;;;1.03;;
20749;SDS011;10535;50.664;4.564;2022-10-16T09:20:59;5.87;;;0.77;;
20749;SDS011;10535;50.664;4.564;2022-10-16T09:23:37;1.53;;;0.90;;
20749;SDS011;10535;50.664;4.564;2022-10-16T09:26:03;1.77;;;0.80;;
20749;SDS011;10535;50.664;4.564;2022-10-16T09:28:30;1.97;;;0.97;;
20749;SDS011;10535;50.664;4.564;2022-10-16T09:30:57;2.77;;;1.00;;
20749;SDS011;10535;50.664;4.564;2022-10-16T09:33:25;3.17;;;1.00;;
20749;SDS011;10535;50.664;4.564;2022-10-16T09:35:55;4.10;;;1.00;;
20749;SDS011;10535;50.664;4.564;2022-10-16T09:40:58;0.60;;;0.60;;
20749;SDS011;10535;50.664;4.564;2022-10-16T09:46:32;3.33;;;0.87;;
20749;SDS011;10535;50.664;4.564;2022-10-16T09:49:04;3.23;;;0.83;;
20749;SDS011;10535;50.664;4.564;2022-10-16T09:51:44;5.73;;;1.20;;
20749;SDS011;10535;50.664;4.564;2022-10-16T09:54:14;1.73;;;0.67;;
20749;SDS011;10535;50.664;4.564;2022-10-16T09:56:43;5.00;;;1.27;;
20749;SDS011;10535;50.664;4.564;2022-10-16T09:59:15;1.73;;;1.10;;
20749;SDS011;10535;50.664;4.564;2022-10-16T10:01:48;0.93;;;0.70;;
20749;SDS011;10535;50.664;4.564;2022-10-16T10:04:18;1.40;;;0.57;;
20749;SDS011;10535;50.664;4.564;2022-10-16T10:06:50;1.93;;;0.53;;
20749;SDS011;10535;50.664;4.564;2022-10-16T10:09:22;3.33;;;0.90;;
20749;SDS011;10535;50.664;4.564;2022-10-16T10:12:06;2.73;;;1.03;;
20749;SDS011;10535;50.664;4.564;2022-10-16T10:14:45;2.10;;;1.00;;
20749;SDS011;10535;50.664;4.564;2022-10-16T10:17:25;2.10;;;1.03;;
20749;SDS011;10535;50.664;4.564;2022-10-16T10:20:15;3.07;;;0.53;;
20749;SDS011;10535;50.664;4.564;2022-10-16T10:22:59;3.33;;;0.90;;
20749;SDS011;10535;50.664;4.564;2022-10-16T10:25:49;2.03;;;0.87;;
20749;SDS011;10535;50.664;4.564;2022-10-16T10:31:03;4.77;;;0.90;;
20749;SDS011;10535;50.664;4.564;2022-10-16T10:34:00;6.10;;;1.17;;
20749;SDS011;10535;50.664;4.564;2022-10-16T10:36:49;5.87;;;1.60;;
20749;SDS011;10535;50.664;4.564;2022-10-16T10:39:38;2.97;;;0.83;;
20749;SDS011;10535;50.664;4.564;2022-10-16T10:45:03;2.70;;;0.80;;
20749;SDS011;10535;50.664;4.564;2022-10-16T10:48:14;1.07;;;0.93;;
20749;SDS011;10535;50.664;4.564;2022-10-16T10:51:01;3.63;;;1.27;;
20749;SDS011;10535;50.664;4.564;2022-10-16T10:53:44;1.50;;;0.63;;
20749;SDS011;10535;50.664;4.564;2022-10-16T11:02:15;1.67;;;0.70;;
20749;SDS011;10535;50.664;4.564;2022-10-16T11:07:59;1.53;;;0.90;;
20749;SDS011;10535;50.664;4.564;2022-10-16T11:10:33;2.03;;;0.73;;
20749;SDS011;10535;50.664;4.564;2022-10-16T11:13:10;1.17;;;0.47;;
20749;SDS011;10535;50.664;4.564;2022-10-16T11:15:45;1.07;;;0.60;;
20749;SDS011;10535;50.664;4.564;2022-10-16T11:18:16;1.60;;;0.50;;
20749;SDS011;10535;50.664;4.564;2022-10-16T11:21:20;0.90;;;0.40;;
20749;SDS011;10535;50.664;4.564;2022-10-16T11:26:34;4.60;;;0.90;;
20749;SDS011;10535;50.664;4.564;2022-10-16T11:29:07;0.83;;;0.50;;
20749;SDS011;10535;50.664;4.564;2022-10-16T11:31:40;2.50;;;0.60;;
20749;SDS011;10535;50.664;4.564;2022-10-16T11:39:27;1.60;;;0.57;;
20749;SDS011;10535;50.664;4.564;2022-10-16T11:44:44;3.47;;;0.73;;
20749;SDS011;10535;50.664;4.564;2022-10-16T11:47:34;1.43;;;0.80;;
20749;SDS011;10535;50.664;4.564;2022-10-16T11:53:23;3.53;;;1.10;;
20749;SDS011;10535;50.664;4.564;2022-10-16T11:55:54;0.67;;;0.60;;
20749;SDS011;10535;50.664;4.564;2022-10-16T12:07:36;2.33;;;0.90;;
20749;SDS011;10535;50.664;4.564;2022-10-16T12:10:27;5.27;;;1.27;;
20749;SDS011;10535;50.664;4.564;2022-10-16T12:12:57;3.60;;;1.10;;
20749;SDS011;10535;50.664;4.564;2022-10-16T12:15:28;1.57;;;0.87;;
20749;SDS011;10535;50.664;4.564;2022-10-16T12:18:20;3.20;;;0.70;;
20749;SDS011;10535;50.664;4.564;2022-10-16T12:21:29;3.47;;;1.30;;
20749;SDS011;10535;50.664;4.564;2022-10-16T12:24:37;4.07;;;1.47;;
20749;SDS011;10535;50.664;4.564;2022-10-16T12:30:20;3.50;;;0.83;;
20749;SDS011;10535;50.664;4.564;2022-10-16T12:33:23;4.33;;;1.20;;
20749;SDS011;10535;50.664;4.564;2022-10-16T12:35:59;1.10;;;0.83;;
20749;SDS011;10535;50.664;4.564;2022-10-16T12:38:52;4.03;;;1.30;;
20749;SDS011;10535;50.664;4.564;2022-10-16T12:41:26;1.70;;;0.83;;
20749;SDS011;10535;50.664;4.564;2022-10-16T12:43:55;0.87;;;0.53;;
20749;SDS011;10535;50.664;4.564;2022-10-16T12:46:33;1.10;;;0.90;;
20749;SDS011;10535;50.664;4.564;2022-10-16T12:51:46;0.97;;;0.80;;
20749;SDS011;10535;50.664;4.564;2022-10-16T12:54:27;0.90;;;0.50;;
20749;SDS011;10535;50.664;4.564;2022-10-16T12:57:33;2.77;;;0.70;;
20749;SDS011;10535;50.664;4.564;2022-10-16T13:00:50;3.90;;;0.60;;
20749;SDS011;10535;50.664;4.564;2022-10-16T13:03:28;0.77;;;0.50;;
20749;SDS011;10535;50.664;4.564;2022-10-16T13:06:49;0.67;;;0.60;;
20749;SDS011;10535;50.664;4.564;2022-10-16T13:09:58;3.13;;;0.60;;
20749;SDS011;10535;50.664;4.564;2022-10-16T13:12:44;0.73;;;0.40;;
20749;SDS011;10535;50.664;4.564;2022-10-16T13:24:49;3.07;;;0.60;;
20749;SDS011;10535;50.664;4.564;2022-10-16T13:27:41;2.53;;;0.53;;
20749;SDS011;10535;50.664;4.564;2022-10-16T13:30:26;0.63;;;0.60;;
20749;SDS011;10535;50.664;4.564;2022-10-16T13:33:02;1.40;;;0.70;;
20749;SDS011;10535;50.664;4.564;2022-10-16T13:35:51;2.80;;;0.70;;
20749;SDS011;10535;50.664;4.564;2022-10-16T13:38:20;2.07;;;0.53;;
20749;SDS011;10535;50.664;4.564;2022-10-16T13:43:50;1.60;;;0.53;;
20749;SDS011;10535;50.664;4.564;2022-10-16T13:46:19;1.23;;;0.50;;
20749;SDS011;10535;50.664;4.564;2022-10-16T13:48:57;2.97;;;0.70;;
20749;SDS011;10535;50.664;4.564;2022-10-16T13:51:26;2.10;;;0.80;;
20749;SDS011;10535;50.664;4.564;2022-10-16T13:53:54;2.10;;;0.43;;
20749;SDS011;10535;50.664;4.564;2022-10-16T13:56:31;1.07;;;0.53;;
20749;SDS011;10535;50.664;4.564;2022-10-16T13:59:01;1.10;;;0.50;;
20749;SDS011;10535;50.664;4.564;2022-10-16T14:01:34;1.90;;;0.60;;
20749;SDS011;10535;50.664;4.564;2022-10-16T14:04:03;1.40;;;0.50;;
20749;SDS011;10535;50.664;4.564;2022-10-16T14:06:31;0.40;;;0.40;;
20749;SDS011;10535;50.664;4.564;2022-10-16T14:09:20;3.60;;;0.40;;
20749;SDS011;10535;50.664;4.564;2022-10-16T14:12:02;2.10;;;0.70;;
20749;SDS011;10535;50.664;4.564;2022-10-16T14:14:41;1.43;;;0.30;;
20749;SDS011;10535;50.664;4.564;2022-10-16T14:19:46;2.00;;;0.63;;
20749;SDS011;10535;50.664;4.564;2022-10-16T14:22:48;0.60;;;0.57;;
20749;SDS011;10535;50.664;4.564;2022-10-16T14:30:26;1.60;;;0.50;;
20749;SDS011;10535;50.664;4.564;2022-10-16T14:35:34;2.27;;;0.57;;
20749;SDS011;10535;50.664;4.564;2022-10-16T14:38:03;1.33;;;0.67;;
20749;SDS011;10535;50.664;4.564;2022-10-16T14:40:35;2.60;;;0.53;;
20749;SDS011;10535;50.664;4.564;2022-10-16T14:43:20;1.63;;;0.50;;
20749;SDS011;10535;50.664;4.564;2022-10-16T14:45:52;0.63;;;0.60;;
20749;SDS011;10535;50.664;4.564;2022-10-16T14:48:20;2.60;;;0.67;;
20749;SDS011;10535;50.664;4.564;2022-10-16T14:50:48;0.40;;;0.40;;
20749;SDS011;10535;50.664;4.564;2022-10-16T14:53:20;3.53;;;1.17;;
20749;SDS011;10535;50.664;4.564;2022-10-16T14:55:47;5.47;;;0.70;;
20749;SDS011;10535;50.664;4.564;2022-10-16T14:58:22;1.67;;;0.90;;
20749;SDS011;10535;50.664;4.564;2022-10-16T15:00:50;1.70;;;1.00;;
20749;SDS011;10535;50.664;4.564;2022-10-16T15:03:16;0.93;;;0.60;;
20749;SDS011;10535;50.664;4.564;2022-10-16T15:05:42;2.60;;;0.97;;
20749;SDS011;10535;50.664;4.564;2022-10-16T15:08:10;1.77;;;1.10;;
20749;SDS011;10535;50.664;4.564;2022-10-16T15:10:39;1.70;;;1.00;;
20749;SDS011;10535;50.664;4.564;2022-10-16T15:13:06;2.80;;;0.90;;
20749;SDS011;10535;50.664;4.564;2022-10-16T15:15:37;2.87;;;0.90;;
20749;SDS011;10535;50.664;4.564;2022-10-16T15:18:11;2.57;;;0.90;;
20749;SDS011;10535;50.664;4.564;2022-10-16T15:20:40;0.90;;;0.80;;
20749;SDS011;10535;50.664;4.564;2022-10-16T15:23:14;1.13;;;0.97;;
20749;SDS011;10535;50.664;4.564;2022-10-16T15:25:56;2.07;;;0.93;;
20749;SDS011;10535;50.664;4.564;2022-10-16T15:28:28;1.00;;;0.90;;
20749;SDS011;10535;50.664;4.564;2022-10-16T15:30:57;3.77;;;0.77;;
20749;SDS011;10535;50.664;4.564;2022-10-16T15:33:26;2.07;;;1.03;;
20749;SDS011;10535;50.664;4.564;2022-10-16T15:35:58;2.60;;;1.17;;
20749;SDS011;10535;50.664;4.564;2022-10-16T15:38:26;3.30;;;1.00;;
20749;SDS011;10535;50.664;4.564;2022-10-16T15:40:55;3.17;;;1.70;;
20749;SDS011;10535;50.664;4.564;2022-10-16T15:43:23;1.50;;;1.30;;
20749;SDS011;10535;50.664;4.564;2022-10-16T15:46:04;1.77;;;1.17;;
20749;SDS011;10535;50.664;4.564;2022-10-16T15:48:32;2.83;;;1.20;;
20749;SDS011;10535;50.664;4.564;2022-10-16T15:51:10;1.47;;;1.10;;
20749;SDS011;10535;50.664;4.564;2022-10-16T15:53:42;4.90;;;1.20;;
20749;SDS011;10535;50.664;4.564;2022-10-16T15:56:11;3.00;;;1.10;;
20749;SDS011;10535;50.664;4.564;2022-10-16T15:58:41;1.20;;;0.90;;
20749;SDS011;10535;50.664;4.564;2022-10-16T16:01:07;4.00;;;0.90;;
20749;SDS011;10535;50.664;4.564;2022-10-16T16:03:37;1.03;;;0.93;;
20749;SDS011;10535;50.664;4.564;2022-10-16T16:06:10;2.27;;;1.17;;
20749;SDS011;10535;50.664;4.564;2022-10-16T16:08:39;1.87;;;1.47;;
20749;SDS011;10535;50.664;4.564;2022-10-16T16:11:09;4.33;;;1.40;;
20749;SDS011;10535;50.664;4.564;2022-10-16T16:13:36;2.83;;;1.30;;
20749;SDS011;10535;50.664;4.564;2022-10-16T16:16:07;2.77;;;1.20;;
20749;SDS011;10535;50.664;4.564;2022-10-16T16:18:53;1.47;;;1.20;;
20749;SDS011;10535;50.664;4.564;2022-10-16T16:21:20;2.63;;;1.33;;
20749;SDS011;10535;50.664;4.564;2022-10-16T16:23:48;10.90;;;7.07;;
20749;SDS011;10535;50.664;4.564;2022-10-16T16:26:27;2.80;;;2.37;;
20749;SDS011;10535;50.664;4.564;2022-10-16T16:29:06;5.70;;;2.90;;
20749;SDS011;10535;50.664;4.564;2022-10-16T16:31:39;3.00;;;1.67;;
20749;SDS011;10535;50.664;4.564;2022-10-16T16:34:06;1.80;;;1.60;;
20749;SDS011;10535;50.664;4.564;2022-10-16T16:36:34;2.17;;;1.53;;
20749;SDS011;10535;50.664;4.564;2022-10-16T16:39:01;3.17;;;2.13;;
20749;SDS011;10535;50.664;4.564;2022-10-16T16:41:30;1.67;;;1.30;;
20749;SDS011;10535;50.664;4.564;2022-10-16T16:44:02;6.03;;;1.83;;
20749;SDS011;10535;50.664;4.564;2022-10-16T16:46:34;2.93;;;1.37;;
20749;SDS011;10535;50.664;4.564;2022-10-16T16:49:01;2.77;;;1.80;;
20749;SDS011;10535;50.664;4.564;2022-10-16T16:51:28;9.50;;;2.10;;
20749;SDS011;10535;50.664;4.564;2022-10-16T16:53:59;2.03;;;1.80;;
20749;SDS011;10535;50.664;4.564;2022-10-16T16:56:25;4.20;;;2.67;;
20749;SDS011;10535;50.664;4.564;2022-10-16T16:58:52;3.70;;;1.63;;
20749;SDS011;10535;50.664;4.564;2022-10-16T17:01:29;2.10;;;1.63;;
20749;SDS011;10535;50.664;4.564;2022-10-16T17:03:56;2.40;;;1.80;;